Time;durP1;ratioP1;P1;durP2;ratioP2;P2;SDS_P1;SDS_P2;PMS_P1;PMS_P2;Temp;Humidity;BMP_temperature;BMP_pressure;BME280_temperature;BME280_humidity;BME280_pressure;Samples;Min_cycle;Max_cycle;Signal;HPM_P1;HPM_P2
2021/12/19 00:01:08;;;;;;;19.35;12.63;;;;;;;7.82;82.32;103483.59;3568923;40;20101;-66
2021/12/19 00:03:52;;;;;;;17.70;12.13;;;;;;;7.78;82.35;103475.63;3568414;40;20100;-65
2021/12/19 00:09:05;;;;;;;20.65;13.20;;;;;;;7.78;83.20;103470.25;3568960;40;20051;-67
2021/12/19 00:11:31;;;;;;;22.23;13.07;;;;;;;7.80;82.63;103471.13;3569324;40;20151;-66
2021/12/19 00:13:57;;;;;;;21.23;13.48;;;;;;;7.80;82.62;103464.00;3566590;40;20097;-65
2021/12/19 00:16:23;;;;;;;20.13;13.15;;;;;;;7.82;82.60;103462.19;3569851;40;20308;-64
2021/12/19 00:18:50;;;;;;;18.10;12.93;;;;;;;7.83;82.66;103468.41;3569870;40;20410;-64
2021/12/19 00:21:20;;;;;;;19.63;12.75;;;;;;;7.83;82.17;103458.63;3569193;40;20052;-64
2021/12/19 00:23:51;;;;;;;19.73;13.02;;;;;;;7.84;82.38;103454.16;3570665;40;20391;-65
2021/12/19 00:26:18;;;;;;;18.52;13.00;;;;;;;7.85;82.29;103458.59;3569013;40;20422;-65
2021/12/19 00:28:48;;;;;;;19.10;12.75;;;;;;;7.85;81.93;103450.56;3568884;40;20080;-65
2021/12/19 00:31:14;;;;;;;19.55;13.57;;;;;;;7.80;82.72;103447.03;3567418;40;20164;-64
2021/12/19 00:33:41;;;;;;;20.25;13.50;;;;;;;7.84;82.14;103448.78;3566862;40;20049;-64
2021/12/19 00:36:09;;;;;;;20.45;13.57;;;;;;;7.85;82.38;103447.88;3568698;40;20065;-64
2021/12/19 00:38:36;;;;;;;19.70;13.77;;;;;;;7.83;83.05;103445.22;3566068;40;20080;-64
2021/12/19 00:41:05;;;;;;;22.80;14.65;;;;;;;7.84;82.39;103438.09;3570218;40;20438;-64
2021/12/19 00:43:44;;;;;;;23.00;14.77;;;;;;;7.83;82.85;103442.56;3569170;40;20059;-64
2021/12/19 00:46:15;;;;;;;23.45;14.30;;;;;;;7.80;82.32;103441.66;3568560;40;20071;-64
2021/12/19 00:48:49;;;;;;;23.25;14.90;;;;;;;7.71;82.58;103428.34;3569539;40;20057;-65
2021/12/19 00:51:19;;;;;;;;;;;;;;;7.79;82.27;103443.47;3570558;40;20049;-64
2021/12/19 00:53:45;;;;;;;26.27;14.68;;;;;;;7.78;82.26;103438.13;3569609;40;19940;-65
2021/12/19 00:56:12;;;;;;;26.65;15.35;;;;;;;7.61;82.69;103420.41;3569016;40;20293;-64
2021/12/19 00:58:38;;;;;;;25.17;14.52;;;;;;;7.75;83.60;103439.03;3568141;40;20388;-66
2021/12/19 01:01:07;;;;;;;27.35;15.73;;;;;;;7.74;83.56;103441.72;3567116;40;20059;-65
2021/12/19 01:03:35;;;;;;;27.33;15.57;;;;;;;7.76;82.97;103440.81;3568574;40;20057;-65
2021/12/19 01:06:02;;;;;;;29.05;16.20;;;;;;;7.78;82.97;103439.00;3570355;40;20158;-64
2021/12/19 01:08:27;;;;;;;28.73;16.38;;;;;;;7.76;83.44;103435.44;3568915;40;20097;-64
2021/12/19 01:10:53;;;;;;;28.80;16.45;;;;;;;7.74;83.57;103436.34;3567518;40;20300;-64
2021/12/19 01:13:19;;;;;;;29.63;16.77;;;;;;;7.75;83.74;103435.47;3569713;40;20072;-65
2021/12/19 01:15:47;;;;;;;26.02;15.52;;;;;;;7.74;83.60;103431.00;3568103;40;20403;-64
2021/12/19 01:18:13;;;;;;;28.65;15.63;;;;;;;7.71;83.13;103428.34;3568653;40;20142;-65
2021/12/19 01:20:41;;;;;;;27.90;16.13;;;;;;;7.70;83.98;103430.13;3568192;40;20357;-65
2021/12/19 01:23:09;;;;;;;31.75;16.52;;;;;;;7.67;84.08;103430.16;3569376;40;20049;-64
2021/12/19 01:25:36;;;;;;;29.38;17.02;;;;;;;7.66;84.32;103423.94;3570291;40;20126;-64
2021/12/19 01:28:02;;;;;;;31.50;17.30;;;;;;;7.67;83.90;103422.13;3569978;40;20068;-62
2021/12/19 01:30:28;;;;;;;30.58;16.48;;;;;;;7.66;83.63;103423.03;3568721;40;20386;-64
2021/12/19 01:32:54;;;;;;;26.55;15.48;;;;;;;7.65;84.45;103422.16;3569179;40;20064;-64
2021/12/19 01:35:24;;;;;;;27.77;15.98;;;;;;;7.64;84.44;103419.47;3570994;40;20056;-64
2021/12/19 01:37:51;;;;;;;30.25;15.65;;;;;;;7.64;83.66;103425.75;3570071;40;20596;-64
2021/12/19 01:40:20;;;;;;;32.47;17.02;;;;;;;7.67;84.48;103409.66;3568638;40;20439;-66
2021/12/19 01:42:51;;;;;;;29.88;15.38;;;;;;;7.65;84.28;103408.78;3571130;40;20127;-64
2021/12/19 01:45:43;;;;;;;31.60;15.77;;;;;;;7.66;83.59;103418.56;3571251;40;20065;-65
2021/12/19 01:48:13;;;;;;;28.27;15.20;;;;;;;7.65;84.39;103415.94;3568283;40;20092;-64
2021/12/19 01:50:40;;;;;;;26.30;14.32;;;;;;;7.63;83.47;103423.06;3569211;40;20056;-64
2021/12/19 01:53:13;;;;;;;29.77;14.65;;;;;;;7.62;84.15;103416.84;3571552;40;20096;-63
2021/12/19 01:55:43;;;;;;;28.23;14.75;;;;;;;7.55;84.21;103399.06;3567709;40;20057;-64
2021/12/19 01:58:10;;;;;;;30.17;14.20;;;;;;;7.46;84.05;103385.75;3605436;22;20057;-62
2021/12/19 02:00:45;;;;;;;29.70;14.32;;;;;;;7.56;83.85;103406.16;3583449;40;20056;-63
2021/12/19 02:03:13;;;;;;;27.10;13.88;;;;;;;7.54;84.27;103405.28;3572086;40;20058;-63
2021/12/19 02:05:40;;;;;;;31.27;14.02;;;;;;;7.46;83.82;103396.44;3584042;40;20674;-63
2021/12/19 02:08:09;;;;;;;31.80;15.35;;;;;;;7.54;84.13;103402.59;3579895;40;20058;-64
2021/12/19 02:10:35;;;;;;;26.20;13.98;;;;;;;7.44;83.49;103379.50;3577043;40;20044;-63
2021/12/19 02:13:04;;;;;;;25.45;13.85;;;;;;;7.35;84.23;103366.19;3572845;40;20095;-62
2021/12/19 02:15:34;;;;;;;27.30;14.43;;;;;;;7.49;84.00;103399.09;3571830;40;20068;-62
2021/12/19 02:18:06;;;;;;;29.67;15.05;;;;;;;7.38;83.78;103374.19;3573961;40;20115;-62
2021/12/19 02:20:47;;;;;;;27.65;15.05;;;;;;;7.46;83.59;103395.56;3568752;40;20064;-65
2021/12/19 02:23:13;;;;;;;28.48;14.23;;;;;;;7.44;84.38;103395.56;3572080;40;20044;-63
2021/12/19 02:25:40;;;;;;;30.55;15.50;;;;;;;7.41;83.70;103390.22;3573261;40;20060;-63
2021/12/19 02:28:07;;;;;;;30.58;15.00;;;;;;;7.28;84.45;103360.00;3573358;40;20130;-63
2021/12/19 02:30:33;;;;;;;31.10;15.88;;;;;;;7.38;84.62;103375.06;3573493;40;20111;-64
2021/12/19 02:32:59;;;;;;;31.23;15.65;;;;;;;7.39;84.52;103375.94;3573323;40;20056;-62
2021/12/19 02:35:30;;;;;;;30.63;15.88;;;;;;;7.42;84.14;103378.59;3573737;40;21359;-62
2021/12/19 02:48:14;;;;;;;;;;;;;;;7.30;84.57;103360.00;3573261;40;20135;-62
2021/12/19 02:50:50;;;;;;;34.97;14.45;;;;;;;7.28;84.86;103349.28;3573228;40;20274;-62
2021/12/19 02:53:34;;;;;;;35.33;15.52;;;;;;;7.30;84.97;103355.53;3572461;40;20056;-62
2021/12/19 02:56:03;;;;;;;;;;;;;;;7.29;84.60;103356.41;3573654;40;20060;-62
2021/12/19 02:58:31;;;;;;;32.85;14.57;;;;;;;7.30;85.07;103349.28;3574074;40;19940;-62
2021/12/19 03:01:03;;;;;;;36.83;15.43;;;;;;;7.06;84.39;103313.78;3578330;40;20125;-62
2021/12/19 03:03:28;;;;;;;34.05;15.95;;;;;;;7.22;84.45;103341.31;3574503;40;20049;-62
2021/12/19 03:05:54;;;;;;;33.33;15.30;;;;;;;7.25;85.11;103356.47;3566604;40;20052;-62
2021/12/19 03:08:20;;;;;;;41.83;17.98;;;;;;;7.22;84.91;103339.50;3574400;40;20359;-64
2021/12/19 03:11:28;;;;;;;38.42;16.70;;;;;;;7.25;84.99;103343.09;3573600;40;20072;-62
2021/12/19 03:19:12;;;;;;;42.53;17.15;;;;;;;7.26;85.19;103348.41;3572261;40;19991;-63
2021/12/19 03:21:37;;;;;;;43.35;17.08;;;;;;;7.23;85.34;103327.06;3577825;40;20048;-63
2021/12/19 03:24:04;;;;;;;43.00;17.75;;;;;;;6.66;85.17;103232.97;3579741;40;20078;-62
2021/12/19 03:26:29;;;;;;;39.75;17.95;;;;;;;7.25;85.09;103329.69;3580314;40;20057;-63
2021/12/19 03:28:55;;;;;;;46.13;18.25;;;;;;;7.18;85.02;103312.81;3580755;40;20061;-62
2021/12/19 03:31:20;;;;;;;44.30;18.98;;;;;;;7.18;84.80;103319.03;3581331;40;20076;-64
2021/12/19 03:33:46;;;;;;;41.47;18.27;;;;;;;7.10;85.38;103298.59;3581341;40;20067;-62
2021/12/19 03:36:12;;;;;;;43.55;18.27;;;;;;;7.16;84.79;103299.44;3566093;40;20049;-63
2021/12/19 03:38:42;;;;;;;45.67;18.60;;;;;;;7.18;85.48;103300.31;3573065;40;20055;-62
2021/12/19 03:43:40;;;;;;;44.55;19.23;;;;;;;7.19;84.99;103310.09;3575556;40;20573;-62
2021/12/19 03:46:06;;;;;;;52.70;20.67;;;;;;;7.18;85.78;103313.69;3573630;40;20073;-63
2021/12/19 03:48:32;;;;;;;52.45;21.05;;;;;;;7.11;85.57;103285.22;3575133;40;20096;-63
2021/12/19 03:50:59;;;;;;;46.80;19.45;;;;;;;7.26;85.85;103312.75;3573392;40;20052;-62
2021/12/19 03:53:25;;;;;;;52.05;20.10;;;;;;;6.68;85.37;103205.31;3574776;40;20090;-63
2021/12/19 03:55:52;;;;;;;49.45;19.88;;;;;;;7.22;85.29;103294.03;3571024;40;20553;-62
2021/12/19 03:58:20;;;;;;;47.40;20.10;;;;;;;7.26;85.85;103294.91;3571424;40;20370;-65
2021/12/19 04:00:49;;;;;;;49.63;19.75;;;;;;;7.23;85.24;103284.25;3573938;40;20063;-63
2021/12/19 04:03:20;;;;;;;48.95;20.25;;;;;;;7.26;85.20;103289.53;3572633;40;20067;-62
2021/12/19 04:05:52;;;;;;;48.22;20.20;;;;;;;7.31;85.46;103293.09;3570190;40;20057;-62
2021/12/19 04:08:20;;;;;;;51.78;20.48;;;;;;;7.33;85.67;103290.41;3573081;40;20123;-62
2021/12/19 04:10:49;;;;;;;55.20;19.65;;;;;;;7.30;84.99;103290.44;3574483;40;20044;-62
2021/12/19 04:13:17;;;;;;;50.78;20.27;;;;;;;7.26;84.97;103283.31;3573470;40;20097;-62
2021/12/19 04:15:43;;;;;;;52.75;19.58;;;;;;;7.27;85.11;103287.78;3573963;40;20368;-63
2021/12/19 04:18:08;;;;;;;47.40;18.67;;;;;;;7.27;84.63;103291.34;3576949;40;20063;-62
2021/12/19 04:20:34;;;;;;;50.20;18.38;;;;;;;7.23;85.09;103276.22;3573496;40;20067;-62
2021/12/19 04:22:59;;;;;;;47.88;19.48;;;;;;;7.06;85.68;103238.91;3576584;40;20054;-62
2021/12/19 04:25:25;;;;;;;44.08;19.58;;;;;;;7.22;85.46;103267.28;3573573;40;20500;-62
2021/12/19 04:27:51;;;;;;;40.90;18.30;;;;;;;7.24;84.99;103269.97;3574853;40;20052;-62
2021/12/19 04:30:24;;;;;;;41.00;18.80;;;;;;;7.22;85.13;103272.63;3561597;40;20461;-62
2021/12/19 04:35:24;;;;;;;34.78;16.20;;;;;;;7.10;84.67;103259.34;3571249;40;20045;-63
2021/12/19 04:40:19;;;;;;;38.10;15.57;;;;;;;7.11;85.27;103263.84;3571533;40;20063;-62
2021/12/19 05:16:40;;;;;;;24.80;11.05;;;;;;;6.98;84.37;103235.41;3578621;40;19939;-63
2021/12/19 05:19:31;;;;;;;27.80;11.57;;;;;;;6.59;84.72;103162.63;3571257;40;20069;-62
2021/12/19 05:21:57;;;;;;;30.80;11.93;;;;;;;6.99;84.29;103234.50;3571657;40;20049;-62
2021/12/19 05:27:11;;;;;;;33.75;12.95;;;;;;;7.01;84.64;103245.19;3572034;40;20138;-63
2021/12/19 05:29:39;;;;;;;29.27;11.32;;;;;;;7.00;84.79;103233.59;3570539;40;20480;-63
2021/12/19 05:32:06;;;;;;;27.35;11.60;;;;;;;6.94;84.73;103223.84;3572890;40;20056;-62
2021/12/19 05:34:32;;;;;;;28.15;12.48;;;;;;;7.00;84.50;103241.63;3573045;40;20399;-62
2021/12/19 05:45:12;;;;;;;31.42;12.55;;;;;;;6.98;84.49;103238.97;3573322;40;19939;-63
2021/12/19 05:47:48;;;;;;;29.70;13.95;;;;;;;6.98;85.28;103240.78;3564458;40;20319;-62
2021/12/19 05:50:19;;;;;;;32.25;14.80;;;;;;;6.95;84.41;103240.78;3571879;40;20047;-61
2021/12/19 05:52:48;;;;;;;35.42;16.17;;;;;;;6.90;84.43;103231.91;3573253;40;20130;-62
2021/12/19 05:55:16;;;;;;;27.90;13.88;;;;;;;6.86;83.82;103231.03;3573761;40;20064;-63
2021/12/19 05:57:42;;;;;;;32.90;13.85;;;;;;;6.87;84.29;103237.28;3570886;40;20053;-62
2021/12/19 06:00:14;;;;;;;27.40;12.80;;;;;;;6.86;83.74;103232.84;3572876;40;20048;-62
2021/12/19 06:02:41;;;;;;;25.00;12.65;;;;;;;6.85;84.20;103225.69;3574672;40;20052;-62
2021/12/19 06:05:09;;;;;;;23.23;10.82;;;;;;;6.83;84.22;103216.81;3575827;40;20084;-62
2021/12/19 06:07:35;;;;;;;19.63;9.93;;;;;;;6.84;83.47;103214.13;3573896;40;20049;-63
2021/12/19 06:10:02;;;;;;;19.13;9.40;;;;;;;6.77;83.49;103203.50;3572695;40;20122;-62
2021/12/19 06:12:27;;;;;;;16.98;9.98;;;;;;;6.85;83.63;103217.69;3573215;40;20070;-63
2021/12/19 06:14:53;;;;;;;18.77;9.50;;;;;;;6.80;83.68;103208.81;3576723;40;20387;-62
2021/12/19 06:17:18;;;;;;;17.55;10.45;;;;;;;6.81;83.85;103205.25;3573327;40;20188;-62
2021/12/19 06:19:44;;;;;;;17.98;9.82;;;;;;;6.78;83.20;103206.16;3573388;40;20064;-64
2021/12/19 06:22:09;;;;;;;17.58;10.00;;;;;;;6.84;84.16;103216.78;3571844;40;20299;-63
2021/12/19 06:24:37;;;;;;;20.35;10.32;;;;;;;6.82;83.54;103212.34;3574382;40;20094;-63
2021/12/19 06:27:04;;;;;;;23.30;11.50;;;;;;;6.84;83.76;103205.22;3573175;40;20057;-62
2021/12/19 06:29:32;;;;;;;20.98;11.68;;;;;;;6.90;83.89;103210.53;3572023;40;20336;-63
2021/12/19 06:31:59;;;;;;;22.73;13.25;;;;;;;6.82;83.60;103213.28;3571938;40;20053;-62
2021/12/19 06:34:25;;;;;;;22.27;12.95;;;;;;;6.78;84.26;103199.91;3572985;40;20140;-63
2021/12/19 06:36:52;;;;;;;26.27;14.63;;;;;;;6.84;83.50;103208.78;3573526;40;20071;-64
2021/12/19 06:39:23;;;;;;;25.20;14.57;;;;;;;6.90;83.72;103214.06;3566866;40;20466;-63
2021/12/19 06:41:50;;;;;;;27.17;14.32;;;;;;;6.90;83.41;103213.19;3574211;40;20052;-64
2021/12/19 06:44:16;;;;;;;28.30;15.07;;;;;;;6.91;83.93;103206.94;3574910;40;20045;-63
2021/12/19 06:46:43;;;;;;;30.45;16.70;;;;;;;6.76;83.90;103180.34;3563793;40;20081;-64
2021/12/19 06:49:09;;;;;;;30.40;16.98;;;;;;;6.92;83.29;103203.38;3576657;40;20048;-64
2021/12/19 06:51:35;;;;;;;29.80;17.20;;;;;;;6.94;84.19;103190.88;3574086;40;20115;-65
2021/12/19 06:54:02;;;;;;;31.33;17.15;;;;;;;6.82;83.93;103169.56;3574644;40;20595;-62
2021/12/19 06:56:28;;;;;;;34.65;19.05;;;;;;;6.96;83.65;103183.72;3576035;40;20052;-63
2021/12/19 06:58:54;;;;;;;32.42;18.50;;;;;;;6.99;83.71;103183.69;3575642;40;20095;-65
2021/12/19 07:01:19;;;;;;;35.00;19.00;;;;;;;6.91;83.98;103161.47;3574791;40;20073;-64
2021/12/19 07:03:45;;;;;;;34.80;19.25;;;;;;;7.02;83.96;103172.09;3573199;40;20099;-64
2021/12/19 07:06:11;;;;;;;33.75;19.50;;;;;;;6.96;83.78;103173.03;3574702;40;20056;-64
2021/12/19 07:08:36;;;;;;;35.78;20.80;;;;;;;6.98;84.21;103168.56;3578319;40;20051;-63
2021/12/19 07:11:02;;;;;;;35.30;20.23;;;;;;;7.01;84.48;103168.53;3576672;40;20055;-64
2021/12/19 07:13:28;;;;;;;39.35;20.60;;;;;;;7.00;84.53;103169.41;3576263;40;20056;-63
2021/12/19 07:15:55;;;;;;;36.80;21.20;;;;;;;7.03;84.04;103172.06;3576147;40;20064;-63
2021/12/19 07:18:22;;;;;;;38.83;21.40;;;;;;;6.99;84.74;103156.97;3571504;40;20104;-63
2021/12/19 07:20:48;;;;;;;41.47;22.10;;;;;;;6.94;84.58;103158.78;3575988;40;20428;-63
2021/12/19 07:23:17;;;;;;;42.40;21.92;;;;;;;7.05;84.44;103166.72;3574125;40;20049;-63
2021/12/19 07:25:44;;;;;;;41.70;22.80;;;;;;;7.01;84.43;103165.88;3565069;40;20617;-64
2021/12/19 07:28:11;;;;;;;39.28;21.63;;;;;;;7.03;84.14;103174.75;3575959;40;20401;-66
2021/12/19 07:30:38;;;;;;;41.83;23.38;;;;;;;6.97;84.82;103153.41;3577465;40;20067;-65
2021/12/19 07:33:07;;;;;;;43.83;23.23;;;;;;;7.07;84.76;103170.25;3574134;40;20109;-65
2021/12/19 07:35:37;;;;;;;42.95;23.20;;;;;;;7.08;84.70;103164.03;3575975;40;20055;-65
2021/12/19 07:38:08;;;;;;;43.67;23.85;;;;;;;7.10;84.76;103172.91;3573206;40;20346;-65
2021/12/19 07:40:36;;;;;;;40.53;21.95;;;;;;;7.10;84.96;103168.44;3566626;40;20049;-64
2021/12/19 07:43:04;;;;;;;41.85;23.20;;;;;;;7.05;84.61;103153.34;3576931;40;20052;-64
2021/12/19 07:45:31;;;;;;;40.10;23.15;;;;;;;7.11;85.07;103161.31;3575740;40;20061;-64
2021/12/19 07:47:58;;;;;;;46.83;23.38;;;;;;;7.11;84.95;103159.53;3568340;40;20376;-64
2021/12/19 07:50:25;;;;;;;45.42;24.05;;;;;;;7.13;84.80;103152.34;3575330;40;20052;-64
2021/12/19 07:52:52;;;;;;;48.80;24.90;;;;;;;7.07;85.13;103144.41;3574357;40;20096;-63
2021/12/19 07:55:18;;;;;;;43.53;24.25;;;;;;;7.11;84.65;103147.94;3573645;40;20080;-63
2021/12/19 07:57:43;;;;;;;49.47;25.20;;;;;;;7.10;84.93;103144.34;3564549;40;20131;-64
2021/12/19 08:00:13;;;;;;;50.33;24.80;;;;;;;7.18;84.97;103147.84;3615525;23;20048;-63
2021/12/19 08:02:42;;;;;;;52.58;24.98;;;;;;;7.20;84.75;103145.19;3583042;40;20040;-63
2021/12/19 08:05:09;;;;;;;52.70;25.90;;;;;;;7.21;85.01;103142.47;3584560;40;20060;-62
2021/12/19 08:07:34;;;;;;;48.83;24.00;;;;;;;7.10;84.18;103130.97;3583471;40;20060;-63
2021/12/19 08:10:13;;;;;;;44.20;21.45;;;;;;;7.24;85.08;103151.38;3579243;40;20048;-62
2021/12/19 08:12:40;;;;;;;36.42;18.85;;;;;;;7.25;84.57;103139.75;3565541;40;20320;-65
2021/12/19 08:15:08;;;;;;;38.88;20.02;;;;;;;7.24;84.68;103146.03;3574175;40;20126;-63
2021/12/19 08:17:35;;;;;;;37.20;18.77;;;;;;;7.25;85.16;103143.31;3575150;40;20105;-63
2021/12/19 08:20:04;;;;;;;35.85;19.42;;;;;;;7.26;84.93;103138.84;3573557;40;20379;-62
2021/12/19 08:22:31;;;;;;;37.45;18.75;;;;;;;7.28;84.82;103142.41;3574653;40;20085;-63
2021/12/19 08:24:57;;;;;;;37.42;17.65;;;;;;;7.28;85.34;103139.72;3573976;40;20084;-64
2021/12/19 08:27:25;;;;;;;31.17;16.90;;;;;;;7.29;84.60;103139.69;3572815;40;20114;-64
2021/12/19 08:29:54;;;;;;;32.70;17.00;;;;;;;7.31;85.33;103132.56;3559795;40;20100;-64
2021/12/19 08:32:20;;;;;;;27.27;14.52;;;;;;;7.27;84.77;103127.28;3576032;40;20070;-64
2021/12/19 08:34:46;;;;;;;28.33;15.18;;;;;;;7.39;84.53;103135.13;3574795;40;20052;-64
2021/12/19 08:37:12;;;;;;;26.85;14.60;;;;;;;7.41;85.40;103133.34;3573585;40;20092;-63
2021/12/19 08:39:38;;;;;;;28.17;14.57;;;;;;;7.44;84.54;103133.31;3572152;40;20052;-65
2021/12/19 08:42:06;;;;;;;27.08;15.50;;;;;;;7.22;84.68;103096.09;3575862;40;20061;-65
2021/12/19 08:44:33;;;;;;;30.50;15.80;;;;;;;7.49;84.60;103139.50;3573416;40;20052;-64
2021/12/19 08:46:59;;;;;;;25.77;15.27;;;;;;;7.50;84.44;103138.59;3572929;40;20049;-65
2021/12/19 08:49:25;;;;;;;28.52;16.15;;;;;;;7.55;85.18;103144.78;3576745;40;20052;-65
2021/12/19 08:51:50;;;;;;;30.88;17.48;;;;;;;7.43;84.85;103123.50;3575163;40;20065;-65
2021/12/19 08:54:16;;;;;;;31.67;17.05;;;;;;;7.38;84.91;103112.84;3574540;40;20068;-65
2021/12/19 08:56:42;;;;;;;31.67;17.85;;;;;;;7.55;84.47;103131.41;3575873;40;20045;-65
2021/12/19 08:59:11;;;;;;;28.52;16.92;;;;;;;7.60;84.54;103128.66;3575555;40;20061;-68
2021/12/19 09:01:37;;;;;;;28.77;17.33;;;;;;;7.32;85.07;103080.81;3579000;40;20059;-65
2021/12/19 09:04:04;;;;;;;30.35;16.98;;;;;;;7.56;84.94;103117.09;3572626;40;20088;-65
2021/12/19 09:06:29;;;;;;;31.20;17.13;;;;;;;7.65;85.03;103121.47;3576136;40;20092;-65
2021/12/19 09:08:55;;;;;;;32.50;17.75;;;;;;;7.65;84.31;103122.34;3574178;40;20071;-65
2021/12/19 09:11:22;;;;;;;28.90;16.83;;;;;;;7.71;85.24;103120.47;3572203;40;20060;-65
2021/12/19 09:13:48;;;;;;;33.72;18.98;;;;;;;7.72;84.39;103117.78;3574943;40;20049;-65
2021/12/19 09:16:14;;;;;;;41.75;24.90;;;;;;;7.75;84.60;103112.41;3575273;40;20096;-65
2021/12/19 09:18:40;;;;;;;43.63;27.58;;;;;;;7.76;85.05;103115.97;3571677;40;20371;-65
2021/12/19 09:21:06;;;;;;;42.67;25.85;;;;;;;7.76;84.58;103114.16;3574461;40;20117;-65
2021/12/19 09:23:33;;;;;;;29.58;18.45;;;;;;;7.80;85.42;103117.69;3575301;40;20054;-65
2021/12/19 09:26:00;;;;;;;25.45;15.98;;;;;;;7.79;84.36;103107.88;3572473;40;20061;-65
2021/12/19 09:28:26;;;;;;;23.25;14.75;;;;;;;7.79;84.38;103106.09;3574315;40;20480;-65
2021/12/19 09:30:52;;;;;;;22.02;12.55;;;;;;;7.82;84.99;103106.03;3576215;40;20072;-65
2021/12/19 09:33:17;;;;;;;16.70;10.50;;;;;;;7.10;84.11;102983.88;3577356;40;20068;-66
2021/12/19 09:35:43;;;;;;;17.17;10.70;;;;;;;7.83;84.24;103104.25;3573827;40;20093;-63
2021/12/19 09:38:09;;;;;;;18.05;10.85;;;;;;;7.87;84.86;103106.00;3570558;40;20045;-63
2021/12/19 09:40:38;;;;;;;15.05;9.57;;;;;;;7.91;84.21;103102.38;3571368;40;20393;-65
2021/12/19 09:43:20;;;;;;;11.95;7.88;;;;;;;7.93;84.46;103097.88;3574675;40;20374;-63
2021/12/19 09:45:52;;;;;;;11.02;7.05;;;;;;;7.95;84.21;103101.41;3573079;40;20048;-64
2021/12/19 09:48:19;;;;;;;10.10;7.05;;;;;;;7.98;83.54;103103.16;3572351;40;20068;-64
2021/12/19 09:50:44;;;;;;;9.43;6.43;;;;;;;8.00;84.12;103096.88;3573430;40;20414;-64
2021/12/19 09:53:10;;;;;;;9.38;6.35;;;;;;;8.02;83.14;103097.72;3574944;40;20068;-64
2021/12/19 09:55:35;;;;;;;7.80;5.18;;;;;;;8.01;84.04;103087.91;3574667;40;20397;-63
2021/12/19 09:58:01;;;;;;;8.65;5.70;;;;;;;8.03;83.52;103096.84;3572700;40;20413;-63
2021/12/19 10:00:28;;;;;;;9.48;6.55;;;;;;;8.03;83.35;103094.16;3575171;40;20062;-64
2021/12/19 10:02:54;;;;;;;8.40;5.95;;;;;;;8.00;83.08;103094.19;3575434;40;20055;-63
2021/12/19 10:05:27;;;;;;;7.78;5.25;;;;;;;8.01;83.55;103095.97;3574857;40;20314;-64
2021/12/19 10:08:01;;;;;;;9.20;5.43;;;;;;;8.06;83.04;103101.25;3573925;40;20052;-64
2021/12/19 10:10:46;;;;;;;10.13;5.97;;;;;;;8.04;83.47;103098.59;3572846;40;20052;-64
2021/12/19 10:13:13;;;;;;;10.27;6.30;;;;;;;8.04;83.55;103087.00;3569820;40;20077;-64
2021/12/19 10:15:43;;;;;;;9.68;6.57;;;;;;;7.98;83.20;103076.38;3567569;40;20079;-64
2021/12/19 10:18:14;;;;;;;8.50;6.40;;;;;;;8.06;83.67;103085.19;3570217;40;20053;-64
2021/12/19 10:20:45;;;;;;;9.82;7.25;;;;;;;8.02;83.08;103078.97;3569534;40;20053;-64
2021/12/19 10:23:17;;;;;;;12.13;7.18;;;;;;;8.09;83.70;103080.66;3569512;40;20096;-64
2021/12/19 10:25:53;;;;;;;10.52;7.05;;;;;;;8.10;83.13;103082.44;3571178;40;20678;-64
2021/12/19 10:28:19;;;;;;;10.32;6.72;;;;;;;8.12;83.62;103075.25;3569704;40;20126;-65
2021/12/19 10:30:47;;;;;;;11.20;7.60;;;;;;;8.14;83.13;103073.44;3569590;40;20056;-64
2021/12/19 10:33:16;;;;;;;11.13;7.82;;;;;;;8.16;83.35;103077.91;3574305;40;20124;-64
2021/12/19 10:35:50;;;;;;;10.65;7.30;;;;;;;8.16;83.23;103068.06;3572030;40;20056;-64
2021/12/19 10:38:24;;;;;;;11.25;7.00;;;;;;;8.12;82.30;103064.56;3572361;40;20395;-64
2021/12/19 10:41:15;;;;;;;10.63;7.22;;;;;;;8.15;82.93;103060.94;3572359;40;20395;-64
2021/12/19 10:44:02;;;;;;;9.93;6.65;;;;;;;8.14;83.65;103057.34;3570215;40;20053;-64
2021/12/19 10:46:31;;;;;;;10.95;7.22;;;;;;;8.11;82.53;103049.38;3574139;40;20048;-64
2021/12/19 10:48:58;;;;;;;10.07;7.78;;;;;;;8.14;82.99;103045.75;3571064;40;20060;-64
2021/12/19 10:51:25;;;;;;;11.32;8.00;;;;;;;7.99;83.49;103020.13;3574035;40;20056;-64
2021/12/19 10:53:57;;;;;;;10.35;7.85;;;;;;;8.16;83.34;103043.94;3568428;40;20097;-64
2021/12/19 10:56:34;;;;;;;11.00;7.70;;;;;;;8.09;83.22;103026.22;3556696;40;20065;-65
2021/12/19 10:59:04;;;;;;;12.25;7.53;;;;;;;8.18;82.95;103046.59;3569890;40;20370;-62
2021/12/19 11:01:39;;;;;;;11.13;7.80;;;;;;;8.16;83.25;103037.72;3574540;40;20689;-64
2021/12/19 11:04:22;;;;;;;11.70;7.85;;;;;;;8.16;83.57;103043.94;3573649;40;20444;-64
2021/12/19 11:06:58;;;;;;;11.75;7.45;;;;;;;8.16;83.41;103038.59;3570455;40;20068;-63
2021/12/19 11:09:31;;;;;;;10.32;7.28;;;;;;;8.12;83.44;103027.06;3574110;40;20044;-65
2021/12/19 11:12:08;;;;;;;9.80;7.68;;;;;;;8.16;83.31;103027.88;3570111;40;20083;-63
2021/12/19 11:14:47;;;;;;;10.32;7.43;;;;;;;8.16;83.67;103019.84;3572954;40;20100;-64
2021/12/19 11:17:26;;;;;;;9.95;7.50;;;;;;;8.11;82.82;102993.13;3575538;40;20068;-63
2021/12/19 11:19:57;;;;;;;10.68;7.40;;;;;;;7.94;82.95;102952.34;3572774;40;20056;-64
2021/12/19 11:22:28;;;;;;;9.93;7.25;;;;;;;8.32;81.84;103009.75;3566515;40;20055;-64
2021/12/19 11:24:57;;;;;;;8.68;7.07;;;;;;;8.30;81.88;102988.31;3572305;40;20425;-64
2021/12/19 11:27:28;;;;;;;11.00;6.53;;;;;;;8.34;81.88;102995.41;3564878;40;20094;-65
2021/12/19 11:29:57;;;;;;;7.60;6.70;;;;;;;8.34;82.13;102990.06;3575625;40;20044;-64
2021/12/19 11:32:32;;;;;;;8.75;6.60;;;;;;;8.37;82.14;102981.06;3570490;40;20087;-65
2021/12/19 11:35:22;;;;;;;8.40;6.28;;;;;;;8.38;82.37;102980.19;3576136;40;20464;-63
2021/12/19 11:38:00;;;;;;;8.70;5.80;;;;;;;8.30;82.12;102966.88;3571216;40;20117;-63
2021/12/19 11:40:35;;;;;;;9.00;6.43;;;;;;;8.34;82.25;102978.44;3572439;40;20059;-64
2021/12/19 11:43:13;;;;;;;10.43;6.43;;;;;;;8.34;81.74;102965.03;3574943;40;20049;-63
2021/12/19 11:45:45;;;;;;;7.43;5.90;;;;;;;8.33;82.30;102961.47;3574030;40;20057;-64
2021/12/19 11:48:16;;;;;;;7.38;5.90;;;;;;;8.40;82.14;102973.00;3574021;40;20100;-63
2021/12/19 11:50:51;;;;;;;8.55;5.53;;;;;;;8.44;82.01;102969.38;3574965;40;20056;-64
2021/12/19 11:53:17;;;;;;;7.50;5.70;;;;;;;8.46;82.09;102966.66;3575129;40;20096;-64
2021/12/19 11:55:47;;;;;;;6.28;4.90;;;;;;;8.45;81.45;102960.41;3573637;40;20060;-64
2021/12/19 11:58:16;;;;;;;5.38;4.60;;;;;;;8.45;80.32;102960.41;3571434;40;20053;-63
2021/12/19 12:01:05;;;;;;;5.47;4.78;;;;;;;8.44;80.49;102953.28;3572018;40;20119;-62
2021/12/19 12:03:42;;;;;;;6.60;5.20;;;;;;;8.47;81.00;102941.59;3577536;40;20080;-64
2021/12/19 12:06:17;;;;;;;6.35;5.28;;;;;;;8.48;80.50;102952.31;3574503;40;20292;-64
2021/12/19 12:09:06;;;;;;;6.10;4.90;;;;;;;8.49;81.27;102945.16;3576292;40;20061;-64
2021/12/19 12:11:36;;;;;;;7.10;4.55;;;;;;;8.42;81.10;102944.38;3575347;40;20052;-65
2021/12/19 12:14:26;;;;;;;8.20;5.30;;;;;;;8.45;80.57;102955.03;3573886;40;20078;-63
2021/12/19 12:17:01;;;;;;;6.30;4.90;;;;;;;8.45;80.60;102948.81;3570052;40;20101;-64
2021/12/19 12:19:51;;;;;;;6.65;5.53;;;;;;;8.41;80.64;102931.03;3573663;40;20111;-64
2021/12/19 12:25:18;;;;;;;5.72;4.40;;;;;;;8.43;80.04;102943.47;3572579;40;20530;-64
2021/12/19 12:27:56;;;;;;;8.73;6.03;;;;;;;8.46;80.86;102931.81;3575493;40;20128;-65
2021/12/19 12:30:38;;;;;;;7.93;4.90;;;;;;;8.44;79.91;102925.59;3576099;40;20057;-64
2021/12/19 12:33:08;;;;;;;5.78;4.85;;;;;;;8.40;80.37;102919.41;3573419;40;20052;-64
2021/12/19 12:35:39;;;;;;;9.73;4.90;;;;;;;8.46;79.63;102924.63;3576749;40;20436;-64
2021/12/19 12:38:07;;;;;;;4.97;4.32;;;;;;;8.45;80.15;102917.53;3576704;40;20057;-64
2021/12/19 12:40:48;;;;;;;6.75;4.88;;;;;;;8.44;80.10;102910.41;3575088;40;20052;-64
2021/12/19 12:43:23;;;;;;;7.75;5.40;;;;;;;8.43;79.67;102903.25;3576275;40;20081;-64
2021/12/19 12:46:08;;;;;;;7.82;5.57;;;;;;;8.44;80.38;102907.72;3574012;40;20075;-64